Gavdos, Greece
Current Conditions -  °F | °C
As of 8:20 PM on Sunday 21 Dec 2014 (Local Time) from LGSA Reporting Station
Few Clouds Few Clouds  
Wind Chill: 57°   Ceiling: Unl
Heat Index: 57°   Visibility: 6mi
Dew Point: 52°   Wind: 10mph
Humidity: 82%   Direction: 290°WNW
Pressure: 30.12"   Gusts: NA
Location:  34.84°N, 24.09°E
Report Text: LGSA 211720Z 29009KT 9999 FEW025 14/11 Q1020
Loading
Personal Weather Stations






























Interactive Weather Map New forecast layout! Learn more

10-Day Weather Forecast

Advertisements
Track Severe Weather on mobile